Time;durP1;ratioP1;P1;durP2;ratioP2;P2;SDS_P1;SDS_P2;PMS_P1;PMS_P2;Temp;Humidity;BMP_temperature;BMP_pressure;BME280_temperature;BME280_humidity;BME280_pressure;Samples;Min_cycle;Max_cycle;Signal;HPM_P1;HPM_P2
2021/03/22 00:00:39;;;;;;;25.67;8.73;;;5.40;84.90;;;;;;5096439;28;20183;-82
2021/03/22 00:03:06;;;;;;;45.28;9.73;;;5.40;84.80;;;;;;5095238;28;20202;-83
2021/03/22 00:05:32;;;;;;;39.70;9.73;;;5.40;84.90;;;;;;5095382;28;20172;-83
2021/03/22 00:07:58;;;;;;;37.08;8.90;;;5.40;84.90;;;;;;5095883;28;20284;-83
2021/03/22 00:10:27;;;;;;;41.93;13.00;;;5.40;85.20;;;;;;5095249;28;20178;-83
2021/03/22 00:12:54;;;;;;;40.45;10.60;;;5.30;85.50;;;;;;5095555;28;20188;-83
2021/03/22 00:15:23;;;;;;;17.27;8.85;;;5.30;85.60;;;;;;5095440;28;20164;-83
2021/03/22 00:17:50;;;;;;;23.92;8.63;;;5.30;85.60;;;;;;5095802;28;20579;-83
2021/03/22 00:20:17;;;;;;;25.88;9.13;;;5.30;85.60;;;;;;5096177;28;20793;-83
2021/03/22 00:22:43;;;;;;;39.63;9.80;;;5.40;85.60;;;;;;5095487;28;20658;-83
2021/03/22 00:25:09;;;;;;;32.47;8.17;;;5.40;85.80;;;;;;5095181;28;20310;-83
2021/03/22 00:27:35;;;;;;;43.60;10.30;;;5.40;85.50;;;;;;5095973;28;20456;-82
2021/03/22 00:30:02;;;;;;;46.60;8.02;;;5.40;85.50;;;;;;5094701;28;20168;-83
2021/03/22 00:32:28;;;;;;;36.17;9.50;;;5.50;85.30;;;;;;5094828;28;20188;-83
2021/03/22 00:34:54;;;;;;;53.57;9.23;;;5.50;85.20;;;;;;5095733;28;20225;-83
2021/03/22 00:37:20;;;;;;;27.20;8.90;;;5.40;85.60;;;;;;5095783;28;20182;-83
2021/03/22 00:39:46;;;;;;;37.70;9.73;;;5.40;85.80;;;;;;5095546;28;20183;-83
2021/03/22 00:42:12;;;;;;;34.23;9.50;;;5.40;85.60;;;;;;5095255;28;20713;-83
2021/03/22 00:44:38;;;;;;;31.83;8.43;;;5.40;85.80;;;;;;5094472;28;20425;-83
2021/03/22 00:47:04;;;;;;;30.33;9.00;;;5.50;85.80;;;;;;5094997;28;20844;-83
2021/03/22 00:49:30;;;;;;;26.38;9.00;;;5.50;85.20;;;;;;5095387;28;20402;-82
2021/03/22 00:51:55;;;;;;;25.40;7.80;;;5.50;85.50;;;;;;5098214;28;20194;-80
2021/03/22 00:54:21;;;;;;;32.27;7.63;;;5.50;85.20;;;;;;5101393;28;20871;-80
2021/03/22 00:56:48;;;;;;;28.90;7.87;;;5.50;85.30;;;;;;5100593;28;20176;-80
2021/03/22 00:59:14;;;;;;;33.35;7.55;;;5.60;85.10;;;;;;5101585;28;20183;-80
2021/03/22 01:01:39;;;;;;;31.97;8.13;;;5.60;84.90;;;;;;5100487;28;20191;-80
2021/03/22 01:04:05;;;;;;;34.43;8.50;;;5.70;84.80;;;;;;5100868;28;20239;-80
2021/03/22 01:06:31;;;;;;;28.30;8.20;;;5.60;84.80;;;;;;5100029;28;20199;-80
2021/03/22 01:08:57;;;;;;;18.43;7.00;;;5.60;84.90;;;;;;5099063;28;20537;-80
2021/03/22 01:11:22;;;;;;;30.53;9.63;;;5.70;84.80;;;;;;5099112;28;20449;-81
2021/03/22 01:13:51;;;;;;;39.47;7.10;;;5.80;84.40;;;;;;5096770;28;20175;-81
2021/03/22 01:16:40;;;;;;;29.00;8.05;;;5.70;84.20;;;;;;5098586;28;20413;-80
2021/03/22 01:19:26;;;;;;;20.75;7.63;;;5.70;84.20;;;;;;5097680;28;20200;-81
2021/03/22 01:22:02;;;;;;;35.28;8.50;;;5.70;84.60;;;;;;5096049;28;20277;-80
2021/03/22 01:24:33;;;;;;;48.33;7.97;;;5.70;84.50;;;;;;5096195;28;20171;-81
2021/03/22 01:27:05;;;;;;;24.15;7.57;;;5.70;84.40;;;;;;5096625;28;20437;-81
2021/03/22 01:29:35;;;;;;;25.52;6.47;;;5.60;84.60;;;;;;5079648;28;20196;-81
2021/03/22 01:32:06;;;;;;;29.30;7.40;;;5.70;84.20;;;;;;5096194;28;20552;-81
2021/03/22 01:34:32;;;;;;;24.95;7.38;;;5.70;84.40;;;;;;5096503;28;20195;-81
2021/03/22 01:36:59;;;;;;;19.83;5.87;;;5.70;84.40;;;;;;5096419;28;20191;-81
2021/03/22 01:39:31;;;;;;;28.73;8.68;;;5.60;84.20;;;;;;5096150;28;20414;-81
2021/03/22 01:42:09;;;;;;;20.95;6.88;;;5.60;84.60;;;;;;5095995;28;20203;-81
2021/03/22 01:44:39;;;;;;;26.30;6.35;;;5.60;84.20;;;;;;5095915;28;20651;-81
2021/03/22 01:47:15;;;;;;;21.35;7.30;;;5.60;83.90;;;;;;5095654;28;20237;-81
2021/03/22 01:49:55;;;;;;;30.00;6.80;;;5.60;83.90;;;;;;5096402;28;20167;-81
2021/03/22 01:52:28;;;;;;;24.65;6.50;;;5.60;83.40;;;;;;5096115;28;20184;-81
2021/03/22 01:54:54;;;;;;;23.23;6.60;;;5.60;83.80;;;;;;5095996;28;20171;-81
2021/03/22 01:57:38;;;;;;;33.25;6.95;;;5.60;83.70;;;;;;5095449;28;20195;-81
2021/03/22 02:00:07;;;;;;;25.50;7.50;;;5.50;83.80;;;;;;5095845;28;20168;-81
2021/03/22 02:02:35;;;;;;;32.25;7.00;;;5.50;83.90;;;;;;5095828;28;20215;-81
2021/03/22 02:05:03;;;;;;;35.90;6.15;;;5.50;83.80;;;;;;5096557;28;20578;-81
2021/03/22 02:07:30;;;;;;;33.00;7.20;;;5.50;83.90;;;;;;5096048;28;20206;-81
2021/03/22 02:09:56;;;;;;;21.60;6.15;;;5.60;83.50;;;;;;5096649;28;20481;-81
2021/03/22 02:12:23;;;;;;;33.67;7.07;;;5.60;83.30;;;;;;5096204;28;20210;-81
2021/03/22 02:14:51;;;;;;;28.08;6.22;;;5.60;83.10;;;;;;5096281;28;20210;-81
2021/03/22 02:17:35;;;;;;;26.80;6.32;;;5.50;83.30;;;;;;5096451;28;20172;-81
2021/03/22 02:20:06;;;;;;;29.40;6.53;;;5.50;83.40;;;;;;5098042;28;20187;-81
2021/03/22 02:22:35;;;;;;;20.67;5.85;;;5.40;83.40;;;;;;5101325;28;20535;-80
2021/03/22 02:25:22;;;;;;;24.83;6.38;;;5.40;83.70;;;;;;5100555;28;20539;-82
2021/03/22 02:28:15;;;;;;;44.85;6.30;;;5.40;83.90;;;;;;5100632;28;20567;-82
2021/03/22 02:31:08;;;;;;;42.38;6.68;;;5.30;83.90;;;;;;5099861;28;20164;-82
2021/03/22 02:33:45;;;;;;;28.17;5.70;;;5.30;83.90;;;;;;5099988;28;20174;-83
2021/03/22 02:36:34;;;;;;;44.55;6.40;;;5.30;84.50;;;;;;5099660;28;20183;-83
2021/03/22 02:39:01;;;;;;;32.88;6.97;;;5.30;84.60;;;;;;5099754;28;20171;-82
2021/03/22 02:41:51;;;;;;;28.00;7.35;;;5.30;84.40;;;;;;5099404;28;20191;-82
2021/03/22 02:44:24;;;;;;;23.50;5.63;;;5.40;84.20;;;;;;5099731;28;20190;-82
2021/03/22 02:47:19;;;;;;;23.48;7.80;;;5.40;84.40;;;;;;5101745;28;20198;-82
2021/03/22 02:49:46;;;;;;;42.22;7.03;;;5.40;84.40;;;;;;5099245;28;20225;-82
2021/03/22 02:52:39;;;;;;;46.72;7.93;;;5.30;84.60;;;;;;5099824;28;20219;-82
2021/03/22 02:55:30;;;;;;;19.10;5.15;;;5.30;84.90;;;;;;5100226;28;20225;-82
2021/03/22 02:58:01;;;;;;;29.60;6.72;;;5.30;85.20;;;;;;5101142;28;20176;-82
2021/03/22 03:00:38;;;;;;;31.00;6.47;;;5.30;85.50;;;;;;5101482;28;20172;-82
2021/03/22 03:03:09;;;;;;;20.88;5.50;;;5.30;85.30;;;;;;5100022;28;20250;-82
2021/03/22 03:05:36;;;;;;;28.05;6.35;;;5.40;84.80;;;;;;5099308;28;20545;-82
2021/03/22 03:08:13;;;;;;;34.67;6.10;;;5.30;84.60;;;;;;5098714;28;20199;-82
2021/03/22 03:10:39;;;;;;;23.42;6.95;;;5.20;84.80;;;;;;5099098;28;20266;-82
2021/03/22 03:13:05;;;;;;;40.87;7.23;;;5.20;85.10;;;;;;5099076;28;20164;-82
2021/03/22 03:15:45;;;;;;;18.08;4.75;;;5.20;83.70;;;;;;5098923;28;20406;-82
2021/03/22 03:18:11;;;;;;;20.02;4.85;;;5.20;83.70;;;;;;5098489;28;20172;-82
2021/03/22 03:20:36;;;;;;;33.20;5.37;;;5.30;83.70;;;;;;5098997;28;20172;-82
2021/03/22 03:23:03;;;;;;;25.57;5.83;;;5.20;83.80;;;;;;5099248;28;20441;-82
2021/03/22 03:25:29;;;;;;;31.33;4.88;;;5.20;83.30;;;;;;5099119;28;20259;-83
2021/03/22 03:27:55;;;;;;;62.05;7.05;;;5.20;83.40;;;;;;5098866;28;20282;-82
2021/03/22 03:30:25;;;;;;;32.60;5.67;;;5.20;82.80;;;;;;5097876;28;20199;-82
2021/03/22 03:32:51;;;;;;;14.27;5.07;;;5.20;82.60;;;;;;5097981;28;20426;-82
2021/03/22 03:35:18;;;;;;;19.20;5.13;;;5.20;82.70;;;;;;5097960;28;20203;-80
2021/03/22 03:37:44;;;;;;;24.13;5.00;;;5.20;82.70;;;;;;5096794;28;20168;-80
2021/03/22 03:40:21;;;;;;;29.60;5.13;;;5.20;83.00;;;;;;5098095;28;20220;-80
2021/03/22 03:42:47;;;;;;;45.78;7.00;;;5.20;82.80;;;;;;5097565;28;20461;-81
2021/03/22 03:45:14;;;;;;;33.00;5.57;;;5.30;82.70;;;;;;5097556;28;20171;-80
2021/03/22 03:47:41;;;;;;;23.83;4.80;;;5.30;82.00;;;;;;5097803;28;20481;-80
2021/03/22 03:50:24;;;;;;;31.20;5.20;;;5.30;82.10;;;;;;5097548;28;20172;-81
2021/03/22 03:52:50;;;;;;;33.88;6.45;;;5.30;81.70;;;;;;5097194;28;20271;-80
2021/03/22 03:55:18;;;;;;;33.47;6.15;;;5.30;81.30;;;;;;5097366;28;20241;-80
2021/03/22 03:57:50;;;;;;;20.98;4.28;;;5.30;81.20;;;;;;5096587;28;20227;-80
2021/03/22 04:00:25;;;;;;;21.83;4.82;;;5.30;80.60;;;;;;5096882;28;20168;-80
2021/03/22 04:02:51;;;;;;;25.48;4.90;;;5.30;80.80;;;;;;5096504;28;20191;-80
2021/03/22 04:05:17;;;;;;;26.45;4.20;;;5.30;80.60;;;;;;5095337;28;20364;-81
2021/03/22 04:07:43;;;;;;;24.02;4.80;;;5.30;80.80;;;;;;5094970;28;20199;-80
2021/03/22 04:10:10;;;;;;;22.40;4.47;;;5.20;81.00;;;;;;5095773;28;20180;-81
2021/03/22 04:12:36;;;;;;;22.20;5.20;;;5.20;80.90;;;;;;5097579;28;20446;-80
2021/03/22 04:15:11;;;;;;;21.40;4.80;;;5.20;81.40;;;;;;5097136;28;20178;-80
2021/03/22 04:17:36;;;;;;;24.85;4.50;;;5.20;81.70;;;;;;5097884;28;20199;-80
2021/03/22 04:20:04;;;;;;;27.17;6.00;;;5.20;82.00;;;;;;5096865;28;20221;-80
2021/03/22 04:22:30;;;;;;;23.55;5.43;;;5.10;81.70;;;;;;5097386;28;20517;-80
2021/03/22 04:24:56;;;;;;;31.27;6.93;;;5.10;81.70;;;;;;5096289;28;20215;-81
2021/03/22 04:27:22;;;;;;;23.73;4.60;;;5.10;81.90;;;;;;5095578;28;20473;-80
2021/03/22 04:29:48;;;;;;;19.50;4.37;;;5.10;81.20;;;;;;5096233;28;20479;-80
2021/03/22 04:32:17;;;;;;;24.40;4.27;;;5.00;80.60;;;;;;5095731;28;20277;-80
2021/03/22 04:34:42;;;;;;;44.67;5.75;;;5.00;80.60;;;;;;5095052;28;20406;-79
2021/03/22 04:37:08;;;;;;;26.93;4.40;;;5.00;80.10;;;;;;5095555;28;20187;-78
2021/03/22 04:39:36;;;;;;;21.48;4.43;;;5.00;78.50;;;;;;5095691;28;20240;-78
2021/03/22 04:42:01;;;;;;;24.85;4.75;;;5.00;78.50;;;;;;5094812;28;20188;-79
2021/03/22 04:44:27;;;;;;;9.40;3.97;;;5.00;77.40;;;;;;5094057;28;20262;-79
2021/03/22 04:46:53;;;;;;;21.90;4.27;;;5.00;77.30;;;;;;5095141;28;20560;-79
2021/03/22 04:49:19;;;;;;;17.30;5.70;;;5.10;77.00;;;;;;5095335;28;20467;-79
2021/03/22 04:51:44;;;;;;;19.40;4.70;;;5.10;76.90;;;;;;5095345;28;20430;-79
2021/03/22 04:54:10;;;;;;;11.70;3.90;;;5.10;77.30;;;;;;5095560;28;20191;-79
2021/03/22 04:56:36;;;;;;;16.70;3.67;;;5.10;77.00;;;;;;5095492;28;20167;-79
2021/03/22 04:59:02;;;;;;;25.73;4.50;;;5.10;77.40;;;;;;5095470;28;20172;-79
2021/03/22 05:01:28;;;;;;;30.85;4.57;;;5.10;77.60;;;;;;5095877;28;20191;-79
2021/03/22 05:03:54;;;;;;;21.93;5.10;;;5.10;78.00;;;;;;5095336;28;20548;-79
2021/03/22 05:06:20;;;;;;;44.60;7.03;;;5.20;78.10;;;;;;5094927;28;20174;-79
2021/03/22 05:08:46;;;;;;;36.72;8.07;;;5.10;79.10;;;;;;5094540;28;20188;-80
2021/03/22 05:11:12;;;;;;;21.45;5.43;;;5.10;79.50;;;;;;5094602;28;20194;-80
2021/03/22 05:13:38;;;;;;;27.60;6.22;;;5.10;79.90;;;;;;5094503;28;20183;-80
2021/03/22 05:16:04;;;;;;;24.47;4.10;;;5.10;79.90;;;;;;5095116;28;20201;-80
2021/03/22 05:18:31;;;;;;;18.75;5.43;;;5.10;80.10;;;;;;5094989;28;20979;-80
2021/03/22 05:21:02;;;;;;;32.60;4.97;;;5.10;80.20;;;;;;5094680;28;20200;-80
2021/03/22 05:23:29;;;;;;;35.92;4.93;;;5.10;80.50;;;;;;5095086;28;20210;-80
2021/03/22 05:25:57;;;;;;;32.70;4.90;;;5.10;79.90;;;;;;5094189;28;20183;-80
2021/03/22 05:28:25;;;;;;;18.10;3.65;;;5.10;79.10;;;;;;5093649;28;20200;-80
2021/03/22 05:30:51;;;;;;;39.03;6.28;;;5.10;78.90;;;;;;5093750;28;20186;-80
2021/03/22 05:33:19;;;;;;;13.68;3.53;;;5.10;78.70;;;;;;5094647;28;20683;-80
2021/03/22 05:35:48;;;;;;;21.67;3.92;;;5.00;77.80;;;;;;5094730;28;20172;-80
2021/03/22 05:38:14;;;;;;;24.08;3.63;;;5.00;77.10;;;;;;5095342;28;20168;-80
2021/03/22 05:40:41;;;;;;;15.55;3.17;;;5.00;77.60;;;;;;5094496;28;20203;-80
2021/03/22 05:43:37;;;;;;;43.70;4.18;;;5.00;77.60;;;;;;5094901;28;20274;-80
2021/03/22 05:46:20;;;;;;;21.92;3.28;;;5.00;77.70;;;;;;5094755;28;20183;-81
2021/03/22 05:48:58;;;;;;;9.65;2.95;;;5.00;77.60;;;;;;5093769;28;20174;-80
2021/03/22 05:51:39;;;;;;;14.48;3.95;;;5.00;77.00;;;;;;5093777;28;20264;-80
2021/03/22 05:54:14;;;;;;;14.00;4.63;;;5.10;76.90;;;;;;5093251;28;20160;-80
2021/03/22 05:56:53;;;;;;;27.45;3.55;;;5.10;76.40;;;;;;5098657;28;20163;-80
2021/03/22 05:59:45;;;;;;;14.32;3.17;;;5.10;76.60;;;;;;5098051;28;20621;-80
2021/03/22 06:02:42;;;;;;;14.95;3.72;;;5.10;76.90;;;;;;5097858;28;20191;-80
2021/03/22 06:05:25;;;;;;;20.75;4.85;;;5.10;76.40;;;;;;5096622;28;20252;-80
2021/03/22 06:07:55;;;;;;;16.17;4.50;;;5.10;76.70;;;;;;5096085;28;20563;-80
2021/03/22 06:10:23;;;;;;;47.75;4.95;;;5.10;76.70;;;;;;5098135;28;20164;-80
2021/03/22 06:12:53;;;;;;;21.35;3.78;;;5.10;76.60;;;;;;5096886;28;20282;-80
2021/03/22 06:15:49;;;;;;;35.97;6.38;;;5.10;76.70;;;;;;5095742;28;20184;-80
2021/03/22 06:18:38;;;;;;;24.70;3.95;;;5.10;77.10;;;;;;5095437;28;20399;-80
2021/03/22 06:21:23;;;;;;;22.60;4.10;;;5.10;77.40;;;;;;5097375;28;20507;-80
2021/03/22 06:23:50;;;;;;;23.27;4.68;;;5.20;77.70;;;;;;5097720;28;20172;-80
2021/03/22 06:26:19;;;;;;;35.13;6.05;;;5.10;78.10;;;;;;5096997;28;20279;-80
2021/03/22 06:28:57;;;;;;;23.77;4.65;;;5.20;78.30;;;;;;5097214;28;20203;-80
2021/03/22 06:31:23;;;;;;;15.10;4.20;;;5.20;78.00;;;;;;5097131;28;20648;-80
2021/03/22 06:34:00;;;;;;;36.30;4.13;;;5.20;78.70;;;;;;5096315;28;20168;-80
2021/03/22 06:36:26;;;;;;;17.55;3.50;;;5.20;78.70;;;;;;5096962;28;20213;-80
2021/03/22 06:38:54;;;;;;;25.33;4.43;;;5.30;79.10;;;;;;5097495;28;20226;-80
2021/03/22 06:41:48;;;;;;;14.00;3.90;;;5.20;79.20;;;;;;5097648;28;20350;-80
2021/03/22 06:44:39;;;;;;;15.13;3.33;;;5.10;79.40;;;;;;5096762;28;20250;-80
2021/03/22 06:47:13;;;;;;;13.27;3.70;;;5.20;79.60;;;;;;5097600;28;20201;-80
2021/03/22 06:49:49;;;;;;;12.70;2.80;;;5.20;79.50;;;;;;5097917;28;20171;-80
2021/03/22 06:52:21;;;;;;;17.08;4.20;;;5.30;79.90;;;;;;5098080;28;20191;-80
2021/03/22 06:54:53;;;;;;;21.60;4.53;;;5.30;80.30;;;;;;5097894;28;20172;-80
2021/03/22 06:57:21;;;;;;;25.55;4.55;;;5.30;80.60;;;;;;5098924;28;20172;-80
2021/03/22 07:00:11;;;;;;;41.47;4.93;;;5.30;82.00;;;;;;5097338;28;20199;-80
2021/03/22 07:02:46;;;;;;;32.50;5.68;;;5.30;82.70;;;;;;5097246;28;20249;-80
2021/03/22 07:05:21;;;;;;;46.88;5.80;;;5.40;82.40;;;;;;5097471;28;20203;-80
2021/03/22 07:08:10;;;;;;;20.05;4.95;;;5.40;81.60;;;;;;5096333;28;20694;-80
2021/03/22 07:11:13;;;;;;;30.08;5.35;;;5.40;82.10;;;;;;5086856;28;20184;-80
2021/03/22 07:13:39;;;;;;;16.55;4.53;;;5.50;82.40;;;;;;5096864;28;20170;-80
2021/03/22 07:16:11;;;;;;;34.85;4.90;;;5.50;81.70;;;;;;5096798;28;20297;-80
2021/03/22 07:18:37;;;;;;;23.70;5.55;;;5.40;81.70;;;;;;5096476;28;20180;-78
2021/03/22 07:21:11;;;;;;;24.63;5.47;;;5.30;82.10;;;;;;5097122;28;20195;-78
2021/03/22 07:23:52;;;;;;;20.33;5.53;;;5.40;82.00;;;;;;5096298;28;20179;-78
2021/03/22 07:26:21;;;;;;;35.50;5.03;;;5.40;82.00;;;;;;5096737;28;20556;-77
2021/03/22 07:29:05;;;;;;;27.80;4.68;;;5.40;81.40;;;;;;5097620;28;20176;-78
2021/03/22 07:31:49;;;;;;;21.38;4.75;;;5.40;81.20;;;;;;5098038;28;20251;-78
2021/03/22 07:34:24;;;;;;;47.72;4.95;;;5.40;80.80;;;;;;5096243;28;20195;-78
2021/03/22 07:37:28;;;;;;;25.73;4.57;;;5.40;81.40;;;;;;5096914;28;20216;-79
2021/03/22 07:40:26;;;;;;;21.45;5.03;;;5.50;81.60;;;;;;5096819;28;20322;-78
2021/03/22 07:43:12;;;;;;;20.15;4.95;;;5.70;81.70;;;;;;5097230;28;20192;-79
2021/03/22 07:46:00;;;;;;;30.40;6.25;;;5.80;80.90;;;;;;5096998;28;20174;-78
2021/03/22 07:48:46;;;;;;;27.23;4.80;;;5.80;80.60;;;;;;5096508;28;20199;-78
2021/03/22 07:51:45;;;;;;;31.48;4.80;;;5.70;80.30;;;;;;5097340;28;20660;-78
2021/03/22 07:54:29;;;;;;;16.35;4.65;;;5.70;80.50;;;;;;5096114;28;20171;-78
2021/03/22 07:56:59;;;;;;;37.20;4.80;;;5.70;80.60;;;;;;5095579;28;20176;-78
2021/03/22 07:59:44;;;;;;;37.95;6.25;;;5.80;80.50;;;;;;5095042;28;20260;-78
2021/03/22 08:02:27;;;;;;;21.48;4.93;;;5.80;80.20;;;;;;5098088;28;20191;-79
2021/03/22 08:05:18;;;;;;;17.63;4.65;;;5.80;79.20;;;;;;5097639;28;20259;-78
2021/03/22 08:07:58;;;;;;;20.40;5.65;;;5.90;78.50;;;;;;5097691;28;20195;-78
2021/03/22 08:10:42;;;;;;;20.85;3.65;;;5.90;78.40;;;;;;5096405;28;20255;-78
2021/03/22 08:13:26;;;;;;;16.95;3.90;;;5.90;78.40;;;;;;5096297;28;20253;-78
2021/03/22 08:15:58;;;;;;;16.17;3.58;;;6.00;78.00;;;;;;5096655;28;20186;-78
2021/03/22 08:18:53;;;;;;;19.77;3.22;;;6.00;78.10;;;;;;5096025;28;20176;-78
2021/03/22 08:21:40;;;;;;;15.70;4.05;;;6.00;77.10;;;;;;5096537;28;20617;-79
2021/03/22 08:24:17;;;;;;;16.70;4.38;;;6.00;77.40;;;;;;5095768;28;20183;-78
2021/03/22 08:27:14;;;;;;;22.40;3.65;;;6.10;76.70;;;;;;5096319;28;20241;-78
2021/03/22 08:29:54;;;;;;;17.48;3.22;;;6.10;76.30;;;;;;5093310;28;20274;-78
2021/03/22 08:32:52;;;;;;;11.98;3.08;;;6.20;76.30;;;;;;5095685;28;20183;-78
2021/03/22 08:35:44;;;;;;;16.77;2.90;;;6.30;75.10;;;;;;5084886;28;20279;-78
2021/03/22 08:38:32;;;;;;;14.55;3.53;;;6.30;74.60;;;;;;5092935;28;20180;-78
2021/03/22 08:40:59;;;;;;;21.42;3.75;;;6.30;74.80;;;;;;5095192;28;20215;-78
2021/03/22 08:43:35;;;;;;;22.33;3.60;;;6.30;74.90;;;;;;5094948;28;20217;-78
2021/03/22 08:46:49;;;;;;;11.30;2.58;;;6.40;74.40;;;;;;5095155;28;20259;-78
2021/03/22 08:49:54;;;;;;;16.90;4.35;;;6.50;73.90;;;;;;5092885;28;20206;-78
2021/03/22 08:52:31;;;;;;;15.40;3.15;;;6.60;73.50;;;;;;5094252;28;20184;-77
2021/03/22 08:55:20;;;;;;;26.77;3.53;;;6.50;73.50;;;;;;5094807;28;20176;-78
2021/03/22 08:57:55;;;;;;;12.75;2.95;;;6.50;73.70;;;;;;5096080;28;20188;-78
2021/03/22 09:00:45;;;;;;;21.67;3.40;;;6.50;73.40;;;;;;5094773;28;20611;-78
2021/03/22 09:03:17;;;;;;;23.02;4.57;;;6.40;73.80;;;;;;5094755;28;20167;-78
2021/03/22 09:06:04;;;;;;;10.02;2.95;;;6.40;73.80;;;;;;5095602;28;20172;-79
2021/03/22 09:08:32;;;;;;;21.88;3.30;;;6.50;74.60;;;;;;5095387;28;20230;-79
2021/03/22 09:11:16;;;;;;;11.23;2.53;;;6.60;74.10;;;;;;5094881;28;20316;-79
2021/03/22 09:13:57;;;;;;;10.30;3.20;;;6.60;75.10;;;;;;5096435;28;20172;-79
2021/03/22 09:16:23;;;;;;;21.88;3.60;;;6.70;74.50;;;;;;5097199;28;20168;-79
2021/03/22 09:19:08;;;;;;;8.32;3.08;;;6.70;73.70;;;;;;5096395;28;20183;-81
2021/03/22 09:21:41;;;;;;;17.42;3.15;;;6.90;74.10;;;;;;5097130;28;20249;-80
2021/03/22 09:24:37;;;;;;;20.20;3.08;;;7.00;72.70;;;;;;5096551;28;20640;-80
2021/03/22 09:27:16;;;;;;;20.88;3.80;;;6.90;72.60;;;;;;5095589;28;20652;-80
2021/03/22 09:29:46;;;;;;;22.25;3.65;;;6.80;73.00;;;;;;5095178;28;20486;-79
2021/03/22 09:32:27;;;;;;;25.65;3.72;;;6.70;74.90;;;;;;5095090;28;20555;-79
2021/03/22 09:35:15;;;;;;;11.65;3.08;;;6.70;75.50;;;;;;5095710;28;20167;-79
2021/03/22 09:38:03;;;;;;;9.73;2.20;;;6.60;77.40;;;;;;5095741;28;20176;-79
2021/03/22 09:40:29;;;;;;;10.60;2.25;;;6.70;76.30;;;;;;5095991;28;20225;-79
2021/03/22 09:43:11;;;;;;;25.38;2.90;;;6.70;75.10;;;;;;5096190;28;20656;-78
2021/03/22 09:45:44;;;;;;;11.90;2.80;;;6.50;76.00;;;;;;5096112;28;20565;-79
2021/03/22 09:48:16;;;;;;;11.07;2.72;;;6.50;76.30;;;;;;5095683;28;20306;-79
2021/03/22 09:50:45;;;;;;;14.13;3.28;;;6.40;78.30;;;;;;5095852;28;20203;-79
2021/03/22 09:53:18;;;;;;;8.25;2.67;;;6.30;77.40;;;;;;5095629;28;20227;-79
2021/03/22 09:55:56;;;;;;;16.88;2.85;;;6.30;78.40;;;;;;5095989;28;20179;-79
2021/03/22 09:58:34;;;;;;;13.93;3.25;;;6.30;76.90;;;;;;5096024;28;20732;-78
2021/03/22 10:01:30;;;;;;;13.38;3.20;;;6.20;77.30;;;;;;5095293;28;20198;-79
2021/03/22 10:04:12;;;;;;;15.68;3.03;;;6.30;76.60;;;;;;5095481;28;20176;-79
2021/03/22 10:06:41;;;;;;;9.60;3.40;;;6.50;76.70;;;;;;5095737;28;20184;-79
2021/03/22 10:09:42;;;;;;;8.30;3.15;;;6.70;75.30;;;;;;5094637;28;20175;-80
2021/03/22 10:12:29;;;;;;;15.65;3.30;;;7.00;73.50;;;;;;5091875;28;20578;-79
2021/03/22 10:15:04;;;;;;;10.35;3.00;;;7.10;73.40;;;;;;5095487;28;20180;-79
2021/03/22 10:17:35;;;;;;;14.27;3.17;;;7.40;72.40;;;;;;5095384;28;20167;-79
2021/03/22 10:20:20;;;;;;;13.07;3.25;;;7.60;71.30;;;;;;5095482;28;20176;-80
2021/03/22 10:22:46;;;;;;;14.68;3.30;;;7.70;70.60;;;;;;5094754;28;20226;-79
2021/03/22 10:25:28;;;;;;;23.55;3.95;;;7.60;70.10;;;;;;5095185;28;20191;-79
2021/03/22 10:28:16;;;;;;;28.42;3.80;;;7.60;70.60;;;;;;5094711;28;20188;-79
2021/03/22 10:31:03;;;;;;;16.08;3.40;;;7.60;70.50;;;;;;5094124;28;20228;-79
2021/03/22 10:33:30;;;;;;;12.75;3.70;;;7.60;69.10;;;;;;5094529;28;20233;-79
2021/03/22 10:35:59;;;;;;;17.95;3.53;;;7.60;70.10;;;;;;5095181;28;20176;-79
2021/03/22 10:38:32;;;;;;;12.60;3.53;;;7.60;69.20;;;;;;5095308;28;20202;-79
2021/03/22 10:41:00;;;;;;;10.50;4.18;;;7.50;68.40;;;;;;5096191;28;20270;-79
2021/03/22 10:43:39;;;;;;;11.65;2.70;;;7.50;68.90;;;;;;5098838;28;20172;-79
2021/03/22 10:46:18;;;;;;;8.93;3.35;;;7.40;69.40;;;;;;5099320;28;20251;-79
2021/03/22 10:48:44;;;;;;;21.85;2.95;;;7.30;69.60;;;;;;5098548;28;20192;-79
2021/03/22 10:51:18;;;;;;;7.75;3.20;;;7.20;70.90;;;;;;5097837;28;20192;-79
2021/03/22 10:53:58;;;;;;;20.13;2.72;;;7.20;71.60;;;;;;5098816;28;20170;-79
2021/03/22 10:56:33;;;;;;;5.60;2.53;;;7.20;72.00;;;;;;5098811;28;20172;-79
2021/03/22 10:59:04;;;;;;;9.50;2.75;;;7.20;71.90;;;;;;5099294;28;20168;-80
2021/03/22 11:01:36;;;;;;;6.18;2.17;;;7.10;72.30;;;;;;5099648;28;20214;-81
2021/03/22 11:04:06;;;;;;;12.27;4.00;;;7.10;72.30;;;;;;5099344;28;20218;-81
2021/03/22 11:06:37;;;;;;;14.88;4.20;;;7.00;72.40;;;;;;5099568;28;20575;-81
2021/03/22 11:09:07;;;;;;;8.77;2.63;;;7.00;72.60;;;;;;5098828;28;20227;-80
2021/03/22 11:11:33;;;;;;;14.23;3.08;;;7.00;72.30;;;;;;5098759;28;20560;-80
2021/03/22 11:14:03;;;;;;;15.63;2.90;;;7.10;72.40;;;;;;5099700;28;20313;-80
2021/03/22 11:16:35;;;;;;;8.75;2.72;;;7.20;71.70;;;;;;5098824;28;20199;-81
2021/03/22 11:19:12;;;;;;;48.15;4.25;;;7.40;71.60;;;;;;5098929;28;20191;-81
2021/03/22 11:21:40;;;;;;;9.38;2.15;;;7.60;71.00;;;;;;5099749;28;20631;-81
2021/03/22 11:24:14;;;;;;;9.13;2.70;;;7.70;69.50;;;;;;5100751;28;20215;-81
2021/03/22 11:26:56;;;;;;;8.35;4.18;;;7.80;70.10;;;;;;5099984;28;20179;-81
2021/03/22 11:29:26;;;;;;;11.43;2.70;;;7.90;70.10;;;;;;5098378;28;20644;-81
2021/03/22 11:32:17;;;;;;;10.25;2.70;;;7.90;69.10;;;;;;5097194;28;20187;-81
2021/03/22 11:34:45;;;;;;;15.05;2.88;;;8.10;68.70;;;;;;5096592;28;20164;-81
2021/03/22 11:37:26;;;;;;;11.77;2.92;;;8.20;68.10;;;;;;5096121;28;20183;-81
2021/03/22 11:40:15;;;;;;;18.60;2.95;;;8.20;67.30;;;;;;5096013;28;20175;-81
2021/03/22 11:43:23;;;;;;;14.23;3.95;;;8.30;68.30;;;;;;5095722;28;20291;-81
2021/03/22 11:45:48;;;;;;;14.13;2.83;;;8.50;67.30;;;;;;5090373;28;20187;-82
2021/03/22 11:48:20;;;;;;;21.83;3.17;;;8.50;66.00;;;;;;5095927;28;20254;-81
2021/03/22 11:51:10;;;;;;;8.95;2.05;;;8.50;66.20;;;;;;5095803;28;20426;-81
2021/03/22 11:53:58;;;;;;;10.15;4.10;;;8.40;65.10;;;;;;5094894;28;20163;-81
2021/03/22 11:56:30;;;;;;;7.28;2.90;;;8.30;66.60;;;;;;5095679;28;20159;-81
2021/03/22 11:59:19;;;;;;;8.13;2.75;;;8.30;65.60;;;;;;5095672;28;20192;-81
2021/03/22 12:02:14;;;;;;;13.32;4.00;;;8.30;66.00;;;;;;5094681;28;20196;-82
2021/03/22 12:05:10;;;;;;;10.40;3.10;;;8.50;66.40;;;;;;5096911;28;20255;-82
2021/03/22 12:07:38;;;;;;;18.80;3.00;;;8.70;65.90;;;;;;5096253;28;20225;-82
2021/03/22 12:10:31;;;;;;;8.32;2.50;;;9.00;64.90;;;;;;5097085;28;20164;-82
2021/03/22 12:12:59;;;;;;;6.05;2.13;;;9.00;63.00;;;;;;5096970;28;20188;-82
2021/03/22 12:15:26;;;;;;;8.80;2.83;;;8.90;62.70;;;;;;5097001;28;20203;-80
2021/03/22 12:18:07;;;;;;;8.70;2.55;;;8.80;63.50;;;;;;5096803;28;20228;-81
2021/03/22 12:20:35;;;;;;;10.93;4.18;;;8.90;63.30;;;;;;5096294;28;20179;-81
2021/03/22 12:23:01;;;;;;;8.32;3.45;;;8.90;64.40;;;;;;5096688;28;20191;-81
2021/03/22 12:25:30;;;;;;;10.77;2.75;;;8.80;63.10;;;;;;5097557;28;20543;-81
2021/03/22 12:27:57;;;;;;;11.93;2.45;;;8.60;63.80;;;;;;5097502;28;20210;-81
2021/03/22 12:30:25;;;;;;;6.63;2.17;;;8.50;64.50;;;;;;5094589;28;20178;-79
2021/03/22 12:32:51;;;;;;;14.20;2.60;;;8.30;64.80;;;;;;5094749;28;20263;-78
2021/03/22 12:35:23;;;;;;;4.38;2.30;;;8.20;64.90;;;;;;5095366;28;20168;-79
2021/03/22 12:37:49;;;;;;;7.43;2.20;;;8.10;65.60;;;;;;5094189;28;20183;-78
2021/03/22 12:40:16;;;;;;;4.95;2.22;;;8.10;66.20;;;;;;5094889;28;20171;-78
2021/03/22 12:42:43;;;;;;;14.68;2.42;;;8.00;66.20;;;;;;5096067;28;20227;-79
2021/03/22 12:45:18;;;;;;;8.55;2.15;;;7.80;66.70;;;;;;5095098;28;20544;-78
2021/03/22 12:47:43;;;;;;;7.43;2.38;;;7.80;67.40;;;;;;5095178;28;20187;-78
2021/03/22 12:50:32;;;;;;;7.50;2.97;;;7.90;67.10;;;;;;5095664;28;20192;-79
2021/03/22 12:52:59;;;;;;;5.90;2.50;;;7.90;68.40;;;;;;5095284;28;20164;-78
2021/03/22 12:55:27;;;;;;;10.13;2.70;;;7.90;69.60;;;;;;5094281;28;20167;-77
2021/03/22 12:57:58;;;;;;;9.27;3.22;;;7.80;69.80;;;;;;5093982;28;20179;-77
2021/03/22 13:00:26;;;;;;;9.38;2.63;;;7.70;70.10;;;;;;5095673;28;20160;-79
2021/03/22 13:02:52;;;;;;;6.60;2.28;;;7.60;69.60;;;;;;5094352;28;20195;-78
2021/03/22 13:05:24;;;;;;;11.27;3.20;;;7.60;69.80;;;;;;5094328;28;20237;-78
2021/03/22 13:07:50;;;;;;;8.80;3.15;;;7.60;70.30;;;;;;5095339;28;20199;-77
2021/03/22 13:10:22;;;;;;;17.48;3.70;;;7.50;71.20;;;;;;5095726;28;20267;-79
2021/03/22 13:12:48;;;;;;;15.52;3.85;;;7.40;70.20;;;;;;5094960;28;20684;-78
2021/03/22 13:15:41;;;;;;;15.43;4.45;;;7.30;71.00;;;;;;5095220;28;20178;-79
2021/03/22 13:18:17;;;;;;;8.63;2.10;;;7.30;71.30;;;;;;5092198;28;20674;-78
2021/03/22 13:20:48;;;;;;;21.90;3.08;;;7.30;71.90;;;;;;5093973;28;20182;-78
2021/03/22 13:23:17;;;;;;;9.35;3.42;;;7.30;71.90;;;;;;5094549;28;20701;-79
2021/03/22 13:25:43;;;;;;;14.82;3.50;;;7.30;71.20;;;;;;5095685;28;20199;-79